sensor_id;sensor_type;location;lat;lon;timestamp;P1;durP1;ratioP1;P2;durP2;ratioP2
20731;SDS011;10527;52.124;5.196;2023-01-29T00:00:13;16.30;;;11.70;;
20731;SDS011;10527;52.124;5.196;2023-01-29T00:02:47;17.77;;;11.83;;
20731;SDS011;10527;52.124;5.196;2023-01-29T00:05:14;15.80;;;11.63;;
20731;SDS011;10527;52.124;5.196;2023-01-29T00:07:53;18.80;;;12.20;;
20731;SDS011;10527;52.124;5.196;2023-01-29T00:10:22;15.90;;;11.13;;
20731;SDS011;10527;52.124;5.196;2023-01-29T00:12:53;15.40;;;11.17;;
20731;SDS011;10527;52.124;5.196;2023-01-29T00:15:20;18.20;;;11.67;;
20731;SDS011;10527;52.124;5.196;2023-01-29T00:17:47;17.50;;;12.00;;
20731;SDS011;10527;52.124;5.196;2023-01-29T00:20:23;17.13;;;11.73;;
20731;SDS011;10527;52.124;5.196;2023-01-29T00:22:49;15.70;;;11.13;;
20731;SDS011;10527;52.124;5.196;2023-01-29T00:25:16;15.47;;;10.93;;
20731;SDS011;10527;52.124;5.196;2023-01-29T00:27:45;15.43;;;10.43;;
20731;SDS011;10527;52.124;5.196;2023-01-29T00:30:12;14.50;;;11.07;;
20731;SDS011;10527;52.124;5.196;2023-01-29T00:32:44;17.27;;;10.97;;
20731;SDS011;10527;52.124;5.196;2023-01-29T00:35:11;15.60;;;11.13;;
20731;SDS011;10527;52.124;5.196;2023-01-29T00:37:38;13.97;;;10.70;;
20731;SDS011;10527;52.124;5.196;2023-01-29T00:40:05;13.37;;;10.67;;
20731;SDS011;10527;52.124;5.196;2023-01-29T00:42:32;13.40;;;9.77;;
20731;SDS011;10527;52.124;5.196;2023-01-29T00:45:20;12.90;;;9.87;;
20731;SDS011;10527;52.124;5.196;2023-01-29T00:47:49;13.37;;;9.30;;
20731;SDS011;10527;52.124;5.196;2023-01-29T00:50:15;12.70;;;9.33;;
20731;SDS011;10527;52.124;5.196;2023-01-29T00:52:43;15.73;;;9.80;;
20731;SDS011;10527;52.124;5.196;2023-01-29T00:55:11;13.60;;;9.27;;
20731;SDS011;10527;52.124;5.196;2023-01-29T00:57:37;13.20;;;10.27;;
20731;SDS011;10527;52.124;5.196;2023-01-29T01:00:05;14.20;;;9.53;;
20731;SDS011;10527;52.124;5.196;2023-01-29T01:02:37;14.17;;;9.93;;
20731;SDS011;10527;52.124;5.196;2023-01-29T01:05:22;11.30;;;8.33;;
20731;SDS011;10527;52.124;5.196;2023-01-29T01:07:51;12.17;;;8.80;;
20731;SDS011;10527;52.124;5.196;2023-01-29T01:10:24;13.37;;;9.03;;
20731;SDS011;10527;52.124;5.196;2023-01-29T01:12:56;12.57;;;9.77;;
20731;SDS011;10527;52.124;5.196;2023-01-29T01:15:31;13.17;;;8.90;;
20731;SDS011;10527;52.124;5.196;2023-01-29T01:18:04;13.43;;;9.60;;
20731;SDS011;10527;52.124;5.196;2023-01-29T01:20:32;15.03;;;9.47;;
20731;SDS011;10527;52.124;5.196;2023-01-29T01:23:01;14.07;;;10.17;;
20731;SDS011;10527;52.124;5.196;2023-01-29T01:25:30;13.20;;;8.97;;
20731;SDS011;10527;52.124;5.196;2023-01-29T01:27:58;13.30;;;9.43;;
20731;SDS011;10527;52.124;5.196;2023-01-29T01:30:28;11.63;;;8.13;;
20731;SDS011;10527;52.124;5.196;2023-01-29T01:32:55;15.07;;;9.27;;
20731;SDS011;10527;52.124;5.196;2023-01-29T01:35:22;11.53;;;8.83;;
20731;SDS011;10527;52.124;5.196;2023-01-29T01:37:48;12.37;;;8.57;;
20731;SDS011;10527;52.124;5.196;2023-01-29T01:40:17;12.10;;;8.83;;
20731;SDS011;10527;52.124;5.196;2023-01-29T01:42:47;14.17;;;10.70;;
20731;SDS011;10527;52.124;5.196;2023-01-29T01:48:04;12.93;;;9.47;;
20731;SDS011;10527;52.124;5.196;2023-01-29T01:50:40;12.27;;;9.03;;
20731;SDS011;10527;52.124;5.196;2023-01-29T01:53:17;15.13;;;8.97;;
20731;SDS011;10527;52.124;5.196;2023-01-29T01:56:21;11.33;;;7.97;;
20731;SDS011;10527;52.124;5.196;2023-01-29T01:59:07;14.77;;;9.80;;
20731;SDS011;10527;52.124;5.196;2023-01-29T02:01:40;14.53;;;9.53;;
20731;SDS011;10527;52.124;5.196;2023-01-29T02:04:22;11.30;;;8.47;;
20731;SDS011;10527;52.124;5.196;2023-01-29T02:07:11;14.93;;;9.20;;
20731;SDS011;10527;52.124;5.196;2023-01-29T02:10:09;13.50;;;8.70;;
20731;SDS011;10527;52.124;5.196;2023-01-29T02:12:42;11.20;;;8.67;;
20731;SDS011;10527;52.124;5.196;2023-01-29T02:15:11;12.57;;;8.53;;
20731;SDS011;10527;52.124;5.196;2023-01-29T02:17:39;13.67;;;8.97;;
20731;SDS011;10527;52.124;5.196;2023-01-29T02:26:35;12.50;;;8.93;;
20731;SDS011;10527;52.124;5.196;2023-01-29T02:32:48;13.47;;;9.83;;
20731;SDS011;10527;52.124;5.196;2023-01-29T02:35:27;13.10;;;8.60;;
20731;SDS011;10527;52.124;5.196;2023-01-29T02:41:06;12.37;;;9.00;;
20731;SDS011;10527;52.124;5.196;2023-01-29T02:43:43;14.83;;;10.27;;
20731;SDS011;10527;52.124;5.196;2023-01-29T02:46:34;12.93;;;9.13;;
20731;SDS011;10527;52.124;5.196;2023-01-29T02:49:24;12.50;;;9.00;;
20731;SDS011;10527;52.124;5.196;2023-01-29T02:52:02;13.50;;;9.50;;
20731;SDS011;10527;52.124;5.196;2023-01-29T02:54:44;17.10;;;9.80;;
20731;SDS011;10527;52.124;5.196;2023-01-29T02:57:21;13.03;;;10.23;;
20731;SDS011;10527;52.124;5.196;2023-01-29T02:59:58;13.83;;;10.60;;
20731;SDS011;10527;52.124;5.196;2023-01-29T03:02:43;13.27;;;9.97;;
20731;SDS011;10527;52.124;5.196;2023-01-29T03:08:20;14.00;;;10.90;;
20731;SDS011;10527;52.124;5.196;2023-01-29T03:11:09;15.30;;;10.77;;
20731;SDS011;10527;52.124;5.196;2023-01-29T03:19:02;16.63;;;11.80;;
20731;SDS011;10527;52.124;5.196;2023-01-29T03:21:39;18.17;;;12.00;;
20731;SDS011;10527;52.124;5.196;2023-01-29T03:24:29;16.40;;;11.47;;
20731;SDS011;10527;52.124;5.196;2023-01-29T03:27:31;18.23;;;12.20;;
20731;SDS011;10527;52.124;5.196;2023-01-29T03:30:27;17.53;;;12.17;;
20731;SDS011;10527;52.124;5.196;2023-01-29T03:33:16;17.23;;;11.67;;
20731;SDS011;10527;52.124;5.196;2023-01-29T03:35:52;18.20;;;12.93;;
20731;SDS011;10527;52.124;5.196;2023-01-29T03:38:28;19.17;;;11.87;;
20731;SDS011;10527;52.124;5.196;2023-01-29T03:44:02;15.63;;;11.37;;
20731;SDS011;10527;52.124;5.196;2023-01-29T03:52:30;19.47;;;13.10;;
20731;SDS011;10527;52.124;5.196;2023-01-29T03:55:23;16.83;;;12.60;;
20731;SDS011;10527;52.124;5.196;2023-01-29T03:58:04;21.00;;;13.10;;
20731;SDS011;10527;52.124;5.196;2023-01-29T04:00:54;20.43;;;13.53;;
20731;SDS011;10527;52.124;5.196;2023-01-29T04:07:01;18.00;;;12.50;;
20731;SDS011;10527;52.124;5.196;2023-01-29T04:09:42;19.37;;;13.27;;
20731;SDS011;10527;52.124;5.196;2023-01-29T04:12:20;20.87;;;13.80;;
20731;SDS011;10527;52.124;5.196;2023-01-29T04:14:55;19.30;;;13.70;;
20731;SDS011;10527;52.124;5.196;2023-01-29T04:17:27;20.93;;;13.50;;
20731;SDS011;10527;52.124;5.196;2023-01-29T04:20:00;22.00;;;14.47;;
20731;SDS011;10527;52.124;5.196;2023-01-29T04:22:32;19.63;;;14.00;;
20731;SDS011;10527;52.124;5.196;2023-01-29T04:25:02;20.57;;;13.93;;
20731;SDS011;10527;52.124;5.196;2023-01-29T04:31:01;18.00;;;12.80;;
20731;SDS011;10527;52.124;5.196;2023-01-29T04:39:21;19.40;;;13.20;;
20731;SDS011;10527;52.124;5.196;2023-01-29T04:42:31;17.83;;;12.33;;
20731;SDS011;10527;52.124;5.196;2023-01-29T04:45:26;20.03;;;13.10;;
20731;SDS011;10527;52.124;5.196;2023-01-29T04:48:23;18.37;;;13.00;;
20731;SDS011;10527;52.124;5.196;2023-01-29T04:54:06;20.33;;;12.60;;
20731;SDS011;10527;52.124;5.196;2023-01-29T04:59:52;18.90;;;13.37;;
20731;SDS011;10527;52.124;5.196;2023-01-29T05:02:34;16.70;;;12.30;;
20731;SDS011;10527;52.124;5.196;2023-01-29T05:05:14;18.90;;;13.10;;
20731;SDS011;10527;52.124;5.196;2023-01-29T05:07:45;19.87;;;13.47;;
20731;SDS011;10527;52.124;5.196;2023-01-29T05:10:14;18.93;;;13.63;;
20731;SDS011;10527;52.124;5.196;2023-01-29T05:12:47;24.27;;;13.40;;
20731;SDS011;10527;52.124;5.196;2023-01-29T05:18:17;17.23;;;12.77;;
20731;SDS011;10527;52.124;5.196;2023-01-29T05:20:44;18.00;;;12.93;;
20731;SDS011;10527;52.124;5.196;2023-01-29T05:23:20;21.03;;;13.73;;
20731;SDS011;10527;52.124;5.196;2023-01-29T05:25:48;22.57;;;14.63;;
20731;SDS011;10527;52.124;5.196;2023-01-29T05:28:27;18.50;;;13.30;;
20731;SDS011;10527;52.124;5.196;2023-01-29T05:30:55;17.80;;;13.13;;
20731;SDS011;10527;52.124;5.196;2023-01-29T05:33:23;19.37;;;13.97;;
20731;SDS011;10527;52.124;5.196;2023-01-29T05:35:53;17.40;;;13.30;;
20731;SDS011;10527;52.124;5.196;2023-01-29T05:38:24;18.47;;;13.07;;
20731;SDS011;10527;52.124;5.196;2023-01-29T05:40:51;17.33;;;12.30;;
20731;SDS011;10527;52.124;5.196;2023-01-29T05:43:21;19.27;;;12.57;;
20731;SDS011;10527;52.124;5.196;2023-01-29T05:45:53;17.07;;;13.30;;
20731;SDS011;10527;52.124;5.196;2023-01-29T05:48:26;17.70;;;12.97;;
20731;SDS011;10527;52.124;5.196;2023-01-29T05:51:00;17.90;;;11.73;;
20731;SDS011;10527;52.124;5.196;2023-01-29T05:53:29;19.27;;;14.13;;
20731;SDS011;10527;52.124;5.196;2023-01-29T05:55:59;19.77;;;15.93;;
20731;SDS011;10527;52.124;5.196;2023-01-29T05:58:31;21.53;;;14.10;;
20731;SDS011;10527;52.124;5.196;2023-01-29T06:01:15;75.20;;;51.13;;
20731;SDS011;10527;52.124;5.196;2023-01-29T06:03:49;33.10;;;25.27;;
20731;SDS011;10527;52.124;5.196;2023-01-29T06:06:16;26.23;;;17.23;;
20731;SDS011;10527;52.124;5.196;2023-01-29T06:08:43;18.40;;;14.53;;
20731;SDS011;10527;52.124;5.196;2023-01-29T06:11:11;19.50;;;14.00;;
20731;SDS011;10527;52.124;5.196;2023-01-29T06:13:43;19.37;;;14.17;;
20731;SDS011;10527;52.124;5.196;2023-01-29T06:16:11;17.33;;;12.40;;
20731;SDS011;10527;52.124;5.196;2023-01-29T06:18:39;19.33;;;14.20;;
20731;SDS011;10527;52.124;5.196;2023-01-29T06:21:07;19.37;;;12.97;;
20731;SDS011;10527;52.124;5.196;2023-01-29T06:23:37;20.40;;;12.40;;
20731;SDS011;10527;52.124;5.196;2023-01-29T06:26:06;18.53;;;13.60;;
20731;SDS011;10527;52.124;5.196;2023-01-29T06:28:37;19.90;;;14.03;;
20731;SDS011;10527;52.124;5.196;2023-01-29T06:31:04;18.57;;;13.53;;
20731;SDS011;10527;52.124;5.196;2023-01-29T06:33:52;17.77;;;12.70;;
20731;SDS011;10527;52.124;5.196;2023-01-29T06:36:19;18.50;;;13.73;;
20731;SDS011;10527;52.124;5.196;2023-01-29T06:38:46;18.47;;;13.17;;
20731;SDS011;10527;52.124;5.196;2023-01-29T06:41:15;20.87;;;13.80;;
20731;SDS011;10527;52.124;5.196;2023-01-29T06:43:44;19.00;;;13.80;;
20731;SDS011;10527;52.124;5.196;2023-01-29T06:46:11;18.60;;;13.13;;
20731;SDS011;10527;52.124;5.196;2023-01-29T06:48:38;18.03;;;12.93;;
20731;SDS011;10527;52.124;5.196;2023-01-29T06:51:06;20.40;;;14.30;;
20731;SDS011;10527;52.124;5.196;2023-01-29T06:53:36;17.03;;;12.60;;
20731;SDS011;10527;52.124;5.196;2023-01-29T06:56:04;17.47;;;12.80;;
20731;SDS011;10527;52.124;5.196;2023-01-29T06:58:32;17.30;;;12.87;;
20731;SDS011;10527;52.124;5.196;2023-01-29T07:01:07;23.07;;;13.93;;
20731;SDS011;10527;52.124;5.196;2023-01-29T07:03:59;15.43;;;12.10;;
20731;SDS011;10527;52.124;5.196;2023-01-29T07:06:29;17.50;;;12.87;;
20731;SDS011;10527;52.124;5.196;2023-01-29T07:08:56;16.10;;;12.57;;
20731;SDS011;10527;52.124;5.196;2023-01-29T07:11:26;20.63;;;13.50;;
20731;SDS011;10527;52.124;5.196;2023-01-29T07:13:53;18.23;;;12.63;;
20731;SDS011;10527;52.124;5.196;2023-01-29T07:16:22;18.03;;;13.43;;
20731;SDS011;10527;52.124;5.196;2023-01-29T07:18:51;16.37;;;12.50;;
20731;SDS011;10527;52.124;5.196;2023-01-29T07:21:18;18.83;;;13.83;;
20731;SDS011;10527;52.124;5.196;2023-01-29T07:23:45;21.73;;;14.70;;
20731;SDS011;10527;52.124;5.196;2023-01-29T07:26:11;19.97;;;13.47;;
20731;SDS011;10527;52.124;5.196;2023-01-29T07:28:38;17.50;;;12.93;;
20731;SDS011;10527;52.124;5.196;2023-01-29T07:31:06;17.40;;;12.63;;
20731;SDS011;10527;52.124;5.196;2023-01-29T07:33:36;17.73;;;13.37;;
20731;SDS011;10527;52.124;5.196;2023-01-29T07:36:07;20.10;;;14.40;;
20731;SDS011;10527;52.124;5.196;2023-01-29T07:38:35;21.50;;;13.33;;
20731;SDS011;10527;52.124;5.196;2023-01-29T07:41:02;19.77;;;14.10;;
20731;SDS011;10527;52.124;5.196;2023-01-29T07:43:29;17.87;;;13.70;;
20731;SDS011;10527;52.124;5.196;2023-01-29T07:45:59;19.63;;;13.70;;
20731;SDS011;10527;52.124;5.196;2023-01-29T07:48:28;20.13;;;13.93;;
20731;SDS011;10527;52.124;5.196;2023-01-29T07:50:55;17.20;;;13.43;;
20731;SDS011;10527;52.124;5.196;2023-01-29T07:53:23;22.57;;;14.57;;
20731;SDS011;10527;52.124;5.196;2023-01-29T07:55:51;18.23;;;13.33;;
20731;SDS011;10527;52.124;5.196;2023-01-29T07:58:21;16.10;;;12.33;;
20731;SDS011;10527;52.124;5.196;2023-01-29T08:00:48;17.93;;;12.47;;
20731;SDS011;10527;52.124;5.196;2023-01-29T08:03:18;22.10;;;13.57;;
20731;SDS011;10527;52.124;5.196;2023-01-29T08:05:48;21.37;;;12.87;;
20731;SDS011;10527;52.124;5.196;2023-01-29T08:08:15;16.47;;;12.40;;
20731;SDS011;10527;52.124;5.196;2023-01-29T08:10:42;18.37;;;12.93;;
20731;SDS011;10527;52.124;5.196;2023-01-29T08:13:12;17.13;;;12.77;;
20731;SDS011;10527;52.124;5.196;2023-01-29T08:15:41;20.00;;;12.97;;
20731;SDS011;10527;52.124;5.196;2023-01-29T08:18:11;15.97;;;12.07;;
20731;SDS011;10527;52.124;5.196;2023-01-29T08:20:39;18.17;;;12.93;;
20731;SDS011;10527;52.124;5.196;2023-01-29T08:23:13;17.47;;;12.60;;
20731;SDS011;10527;52.124;5.196;2023-01-29T08:25:44;15.10;;;11.43;;
20731;SDS011;10527;52.124;5.196;2023-01-29T08:28:11;18.07;;;13.07;;
20731;SDS011;10527;52.124;5.196;2023-01-29T08:30:38;18.73;;;13.43;;
20731;SDS011;10527;52.124;5.196;2023-01-29T08:33:05;18.33;;;12.90;;
20731;SDS011;10527;52.124;5.196;2023-01-29T08:35:32;15.97;;;11.47;;
20731;SDS011;10527;52.124;5.196;2023-01-29T08:37:59;15.57;;;12.00;;
20731;SDS011;10527;52.124;5.196;2023-01-29T08:40:30;16.97;;;12.30;;
20731;SDS011;10527;52.124;5.196;2023-01-29T08:45:33;15.27;;;11.40;;
20731;SDS011;10527;52.124;5.196;2023-01-29T08:48:03;17.33;;;12.37;;
20731;SDS011;10527;52.124;5.196;2023-01-29T08:50:30;20.20;;;12.17;;
20731;SDS011;10527;52.124;5.196;2023-01-29T08:53:04;15.00;;;11.53;;
20731;SDS011;10527;52.124;5.196;2023-01-29T08:55:39;16.03;;;12.07;;
20731;SDS011;10527;52.124;5.196;2023-01-29T08:58:07;16.43;;;12.83;;
20731;SDS011;10527;52.124;5.196;2023-01-29T09:00:36;15.63;;;11.93;;
20731;SDS011;10527;52.124;5.196;2023-01-29T09:03:03;19.23;;;13.33;;
20731;SDS011;10527;52.124;5.196;2023-01-29T09:05:36;15.67;;;12.33;;
20731;SDS011;10527;52.124;5.196;2023-01-29T09:08:04;19.53;;;12.47;;
20731;SDS011;10527;52.124;5.196;2023-01-29T09:10:36;16.50;;;12.50;;
20731;SDS011;10527;52.124;5.196;2023-01-29T09:13:03;22.47;;;13.30;;
20731;SDS011;10527;52.124;5.196;2023-01-29T09:15:35;17.33;;;12.90;;
20731;SDS011;10527;52.124;5.196;2023-01-29T09:18:05;19.10;;;12.77;;
20731;SDS011;10527;52.124;5.196;2023-01-29T09:20:32;17.23;;;12.40;;
20731;SDS011;10527;52.124;5.196;2023-01-29T09:23:05;19.40;;;13.40;;
20731;SDS011;10527;52.124;5.196;2023-01-29T09:25:34;18.43;;;13.73;;
20731;SDS011;10527;52.124;5.196;2023-01-29T09:28:02;17.33;;;12.90;;
20731;SDS011;10527;52.124;5.196;2023-01-29T09:30:29;17.40;;;12.93;;
20731;SDS011;10527;52.124;5.196;2023-01-29T09:32:57;18.80;;;13.60;;
20731;SDS011;10527;52.124;5.196;2023-01-29T09:35:26;18.13;;;13.10;;
20731;SDS011;10527;52.124;5.196;2023-01-29T09:37:53;16.77;;;12.60;;
20731;SDS011;10527;52.124;5.196;2023-01-29T09:46:13;17.00;;;12.67;;
20731;SDS011;10527;52.124;5.196;2023-01-29T09:48:50;16.23;;;11.90;;
20731;SDS011;10527;52.124;5.196;2023-01-29T09:51:27;19.77;;;11.43;;
20731;SDS011;10527;52.124;5.196;2023-01-29T09:57:00;17.87;;;12.70;;
20731;SDS011;10527;52.124;5.196;2023-01-29T09:59:30;22.70;;;12.87;;
20731;SDS011;10527;52.124;5.196;2023-01-29T10:05:09;18.87;;;11.73;;
20731;SDS011;10527;52.124;5.196;2023-01-29T10:11:50;17.10;;;12.23;;
20731;SDS011;10527;52.124;5.196;2023-01-29T10:21:06;16.87;;;12.60;;
20731;SDS011;10527;52.124;5.196;2023-01-29T10:24:40;18.67;;;14.10;;
20731;SDS011;10527;52.124;5.196;2023-01-29T10:27:14;18.67;;;13.60;;
20731;SDS011;10527;52.124;5.196;2023-01-29T10:29:44;19.93;;;14.00;;
20731;SDS011;10527;52.124;5.196;2023-01-29T10:32:17;20.93;;;13.93;;
20731;SDS011;10527;52.124;5.196;2023-01-29T10:34:53;20.57;;;14.00;;
20731;SDS011;10527;52.124;5.196;2023-01-29T10:37:34;19.87;;;13.90;;
20731;SDS011;10527;52.124;5.196;2023-01-29T10:40:50;19.03;;;13.10;;
20731;SDS011;10527;52.124;5.196;2023-01-29T10:43:13;17.53;;;12.93;;
20731;SDS011;10527;52.124;5.196;2023-01-29T10:55:37;19.97;;;14.27;;
20731;SDS011;10527;52.124;5.196;2023-01-29T10:58:33;20.03;;;14.17;;
20731;SDS011;10527;52.124;5.196;2023-01-29T11:01:15;19.10;;;14.33;;
20731;SDS011;10527;52.124;5.196;2023-01-29T11:03:42;21.93;;;14.50;;
20731;SDS011;10527;52.124;5.196;2023-01-29T11:06:20;21.37;;;15.47;;
20731;SDS011;10527;52.124;5.196;2023-01-29T11:14:34;23.40;;;15.43;;
20731;SDS011;10527;52.124;5.196;2023-01-29T11:17:25;21.40;;;14.83;;
20731;SDS011;10527;52.124;5.196;2023-01-29T11:19:52;19.90;;;14.60;;
20731;SDS011;10527;52.124;5.196;2023-01-29T11:22:22;23.47;;;16.10;;
20731;SDS011;10527;52.124;5.196;2023-01-29T11:25:08;21.73;;;16.20;;
20731;SDS011;10527;52.124;5.196;2023-01-29T11:27:52;20.00;;;14.13;;
20731;SDS011;10527;52.124;5.196;2023-01-29T11:30:39;20.97;;;15.10;;
20731;SDS011;10527;52.124;5.196;2023-01-29T11:35:45;21.77;;;15.60;;
20731;SDS011;10527;52.124;5.196;2023-01-29T11:40:46;20.30;;;15.60;;
20731;SDS011;10527;52.124;5.196;2023-01-29T11:45:55;21.87;;;16.43;;
20731;SDS011;10527;52.124;5.196;2023-01-29T11:48:32;23.53;;;17.13;;
20731;SDS011;10527;52.124;5.196;2023-01-29T11:51:37;25.90;;;17.50;;
20731;SDS011;10527;52.124;5.196;2023-01-29T11:54:09;24.83;;;17.33;;
20731;SDS011;10527;52.124;5.196;2023-01-29T11:56:44;25.97;;;18.67;;
20731;SDS011;10527;52.124;5.196;2023-01-29T12:02:16;24.53;;;17.23;;
20731;SDS011;10527;52.124;5.196;2023-01-29T12:05:03;23.43;;;17.77;;
20731;SDS011;10527;52.124;5.196;2023-01-29T12:07:41;23.83;;;17.30;;
20731;SDS011;10527;52.124;5.196;2023-01-29T12:10:45;24.67;;;17.40;;
20731;SDS011;10527;52.124;5.196;2023-01-29T12:15:45;25.63;;;17.80;;
20731;SDS011;10527;52.124;5.196;2023-01-29T12:21:37;26.50;;;17.80;;
20731;SDS011;10527;52.124;5.196;2023-01-29T12:27:13;23.57;;;17.13;;
20731;SDS011;10527;52.124;5.196;2023-01-29T12:30:04;24.23;;;17.60;;
20731;SDS011;10527;52.124;5.196;2023-01-29T12:38:35;23.77;;;17.57;;
20731;SDS011;10527;52.124;5.196;2023-01-29T12:41:07;26.73;;;19.47;;
20731;SDS011;10527;52.124;5.196;2023-01-29T12:44:10;28.17;;;18.27;;
20731;SDS011;10527;52.124;5.196;2023-01-29T12:46:47;23.93;;;17.33;;
20731;SDS011;10527;52.124;5.196;2023-01-29T12:49:29;25.30;;;18.23;;
20731;SDS011;10527;52.124;5.196;2023-01-29T12:52:08;23.27;;;16.87;;
20731;SDS011;10527;52.124;5.196;2023-01-29T12:55:00;23.10;;;17.03;;
20731;SDS011;10527;52.124;5.196;2023-01-29T13:00:26;23.67;;;17.07;;
20731;SDS011;10527;52.124;5.196;2023-01-29T13:03:01;23.37;;;17.30;;
20731;SDS011;10527;52.124;5.196;2023-01-29T13:06:12;23.90;;;16.83;;
20731;SDS011;10527;52.124;5.196;2023-01-29T13:09:00;26.83;;;18.60;;
20731;SDS011;10527;52.124;5.196;2023-01-29T13:11:35;23.53;;;17.60;;
20731;SDS011;10527;52.124;5.196;2023-01-29T13:14:17;25.40;;;17.93;;
20731;SDS011;10527;52.124;5.196;2023-01-29T13:17:12;24.30;;;17.47;;
20731;SDS011;10527;52.124;5.196;2023-01-29T13:19:47;24.50;;;18.53;;
20731;SDS011;10527;52.124;5.196;2023-01-29T13:22:26;24.00;;;18.43;;
20731;SDS011;10527;52.124;5.196;2023-01-29T13:25:02;25.07;;;17.30;;
20731;SDS011;10527;52.124;5.196;2023-01-29T13:27:32;23.30;;;17.97;;
20731;SDS011;10527;52.124;5.196;2023-01-29T13:30:00;22.17;;;17.27;;
20731;SDS011;10527;52.124;5.196;2023-01-29T13:32:29;21.27;;;16.90;;
20731;SDS011;10527;52.124;5.196;2023-01-29T13:35:03;26.10;;;17.80;;
20731;SDS011;10527;52.124;5.196;2023-01-29T13:37:40;24.13;;;16.53;;
20731;SDS011;10527;52.124;5.196;2023-01-29T13:40:26;23.97;;;17.90;;
20731;SDS011;10527;52.124;5.196;2023-01-29T13:42:56;21.80;;;15.57;;
20731;SDS011;10527;52.124;5.196;2023-01-29T13:50:52;21.83;;;17.47;;
20731;SDS011;10527;52.124;5.196;2023-01-29T13:53:28;21.33;;;16.93;;
20731;SDS011;10527;52.124;5.196;2023-01-29T13:59:01;22.27;;;16.83;;
20731;SDS011;10527;52.124;5.196;2023-01-29T14:04:31;25.33;;;17.57;;
20731;SDS011;10527;52.124;5.196;2023-01-29T14:06:59;20.20;;;15.77;;
20731;SDS011;10527;52.124;5.196;2023-01-29T14:12:30;22.50;;;16.70;;
20731;SDS011;10527;52.124;5.196;2023-01-29T14:17:21;24.00;;;17.27;;
20731;SDS011;10527;52.124;5.196;2023-01-29T14:19:53;20.63;;;15.43;;
20731;SDS011;10527;52.124;5.196;2023-01-29T14:22:28;23.40;;;16.83;;
20731;SDS011;10527;52.124;5.196;2023-01-29T14:25:00;21.43;;;16.30;;
20731;SDS011;10527;52.124;5.196;2023-01-29T14:27:30;20.70;;;15.73;;
20731;SDS011;10527;52.124;5.196;2023-01-29T14:30:04;24.60;;;18.20;;
20731;SDS011;10527;52.124;5.196;2023-01-29T14:32:39;20.60;;;15.53;;
20731;SDS011;10527;52.124;5.196;2023-01-29T14:35:15;20.57;;;15.60;;
20731;SDS011;10527;52.124;5.196;2023-01-29T14:37:59;18.50;;;14.97;;
20731;SDS011;10527;52.124;5.196;2023-01-29T14:40:34;20.97;;;15.57;;
20731;SDS011;10527;52.124;5.196;2023-01-29T14:43:06;19.23;;;15.20;;
20731;SDS011;10527;52.124;5.196;2023-01-29T14:45:47;19.93;;;15.00;;
20731;SDS011;10527;52.124;5.196;2023-01-29T14:51:14;21.63;;;16.33;;
20731;SDS011;10527;52.124;5.196;2023-01-29T14:56:34;19.43;;;15.40;;
20731;SDS011;10527;52.124;5.196;2023-01-29T15:02:13;19.83;;;15.47;;
20731;SDS011;10527;52.124;5.196;2023-01-29T15:04:47;18.63;;;13.93;;
20731;SDS011;10527;52.124;5.196;2023-01-29T15:10:16;19.67;;;15.03;;
20731;SDS011;10527;52.124;5.196;2023-01-29T15:13:03;18.07;;;14.07;;
20731;SDS011;10527;52.124;5.196;2023-01-29T15:18:26;23.83;;;15.57;;
20731;SDS011;10527;52.124;5.196;2023-01-29T15:21:12;23.45;;;18.63;;
20731;SDS011;10527;52.124;5.196;2023-01-29T15:23:48;20.53;;;15.90;;
20731;SDS011;10527;52.124;5.196;2023-01-29T15:26:37;17.20;;;13.87;;
20731;SDS011;10527;52.124;5.196;2023-01-29T15:29:18;19.60;;;14.47;;
20731;SDS011;10527;52.124;5.196;2023-01-29T15:31:49;20.87;;;14.73;;
20731;SDS011;10527;52.124;5.196;2023-01-29T15:34:17;16.77;;;13.50;;
20731;SDS011;10527;52.124;5.196;2023-01-29T15:36:44;18.57;;;13.57;;
20731;SDS011;10527;52.124;5.196;2023-01-29T15:41:53;19.80;;;14.37;;
20731;SDS011;10527;52.124;5.196;2023-01-29T15:44:42;19.97;;;14.80;;
20731;SDS011;10527;52.124;5.196;2023-01-29T15:47:11;21.63;;;15.37;;
20731;SDS011;10527;52.124;5.196;2023-01-29T15:49:40;19.80;;;13.80;;
20731;SDS011;10527;52.124;5.196;2023-01-29T15:52:13;21.90;;;13.30;;
20731;SDS011;10527;52.124;5.196;2023-01-29T15:54:46;18.63;;;14.23;;
20731;SDS011;10527;52.124;5.196;2023-01-29T15:57:18;18.43;;;14.00;;
20731;SDS011;10527;52.124;5.196;2023-01-29T15:59:52;21.60;;;14.80;;
20731;SDS011;10527;52.124;5.196;2023-01-29T16:02:39;18.47;;;13.27;;
20731;SDS011;10527;52.124;5.196;2023-01-29T16:05:16;20.80;;;12.63;;
20731;SDS011;10527;52.124;5.196;2023-01-29T16:07:50;17.30;;;13.53;;
20731;SDS011;10527;52.124;5.196;2023-01-29T16:10:20;17.00;;;12.87;;
20731;SDS011;10527;52.124;5.196;2023-01-29T16:12:53;20.20;;;13.30;;
20731;SDS011;10527;52.124;5.196;2023-01-29T16:15:32;23.43;;;14.47;;
20731;SDS011;10527;52.124;5.196;2023-01-29T16:18:03;19.37;;;13.57;;
20731;SDS011;10527;52.124;5.196;2023-01-29T16:20:49;19.60;;;13.67;;
20731;SDS011;10527;52.124;5.196;2023-01-29T16:23:22;18.97;;;13.80;;
20731;SDS011;10527;52.124;5.196;2023-01-29T16:25:55;18.03;;;13.33;;
20731;SDS011;10527;52.124;5.196;2023-01-29T16:28:27;18.47;;;13.53;;
20731;SDS011;10527;52.124;5.196;2023-01-29T16:30:56;19.33;;;13.93;;
20731;SDS011;10527;52.124;5.196;2023-01-29T16:33:32;21.80;;;13.43;;
20731;SDS011;10527;52.124;5.196;2023-01-29T16:36:07;20.73;;;14.97;;
20731;SDS011;10527;52.124;5.196;2023-01-29T16:38:57;21.33;;;13.90;;
20731;SDS011;10527;52.124;5.196;2023-01-29T16:41:31;23.10;;;15.17;;
20731;SDS011;10527;52.124;5.196;2023-01-29T16:44:02;22.20;;;14.67;;
20731;SDS011;10527;52.124;5.196;2023-01-29T16:47:05;22.40;;;15.23;;
20731;SDS011;10527;52.124;5.196;2023-01-29T16:49:41;23.60;;;14.13;;
20731;SDS011;10527;52.124;5.196;2023-01-29T16:55:12;21.57;;;15.33;;
20731;SDS011;10527;52.124;5.196;2023-01-29T16:57:51;18.93;;;14.30;;
20731;SDS011;10527;52.124;5.196;2023-01-29T17:00:26;23.30;;;14.87;;
20731;SDS011;10527;52.124;5.196;2023-01-29T17:03:05;23.00;;;15.83;;
20731;SDS011;10527;52.124;5.196;2023-01-29T17:05:33;21.80;;;15.27;;
20731;SDS011;10527;52.124;5.196;2023-01-29T17:08:06;23.87;;;16.03;;
20731;SDS011;10527;52.124;5.196;2023-01-29T17:10:45;21.80;;;15.10;;
20731;SDS011;10527;52.124;5.196;2023-01-29T17:13:17;23.90;;;15.00;;
20731;SDS011;10527;52.124;5.196;2023-01-29T17:16:02;28.98;;;20.85;;
20731;SDS011;10527;52.124;5.196;2023-01-29T17:18:43;26.60;;;18.53;;
20731;SDS011;10527;52.124;5.196;2023-01-29T17:21:10;23.30;;;15.90;;
20731;SDS011;10527;52.124;5.196;2023-01-29T17:23:37;24.10;;;16.63;;
20731;SDS011;10527;52.124;5.196;2023-01-29T17:26:14;22.37;;;14.90;;
20731;SDS011;10527;52.124;5.196;2023-01-29T17:28:41;22.60;;;15.67;;
20731;SDS011;10527;52.124;5.196;2023-01-29T17:31:09;25.63;;;15.47;;
20731;SDS011;10527;52.124;5.196;2023-01-29T17:33:39;26.23;;;17.00;;
20731;SDS011;10527;52.124;5.196;2023-01-29T17:36:11;19.90;;;15.13;;
20731;SDS011;10527;52.124;5.196;2023-01-29T17:38:44;21.27;;;14.67;;
20731;SDS011;10527;52.124;5.196;2023-01-29T17:41:21;25.10;;;16.70;;
20731;SDS011;10527;52.124;5.196;2023-01-29T17:43:54;25.37;;;16.97;;
20731;SDS011;10527;52.124;5.196;2023-01-29T17:46:24;24.77;;;16.37;;